createdAt,value
2022-09-28T00:00:58.358Z,99956.81
2022-09-28T00:03:28.073Z,99953.47
2022-09-28T00:06:02.637Z,99951.31
2022-09-28T00:08:30.787Z,99949.59
2022-09-28T00:10:58.996Z,99938.16
2022-09-28T00:13:26.695Z,99937.25
2022-09-28T00:16:02.592Z,99939.81
2022-09-28T00:18:32.243Z,99935.59
2022-09-28T00:21:04.741Z,99932.44
2022-09-28T00:23:33.109Z,99924.72
2022-09-28T00:26:03.880Z,99915.13
2022-09-28T00:28:32.103Z,99900.63
2022-09-28T00:31:00.332Z,99901.53
2022-09-28T00:33:28.095Z,99892.09
2022-09-28T00:35:58.769Z,99890.22
2022-09-28T00:38:31.051Z,99879.97
2022-09-28T00:40:59.670Z,99878.97
2022-09-28T00:43:28.039Z,99888.72
2022-09-28T00:46:00.144Z,99893.41
2022-09-28T00:48:30.460Z,99892.13
2022-09-28T00:51:04.937Z,99893.25
2022-09-28T00:53:36.486Z,99887.25
2022-09-28T00:56:09.212Z,99887.47
2022-09-28T00:58:42.465Z,99888.47
2022-09-28T01:01:10.337Z,99893.13
2022-09-28T01:03:38.684Z,99893.72
2022-09-28T01:06:09.254Z,99885.72
2022-09-28T01:08:38.008Z,99884.41
2022-09-28T01:11:05.963Z,99882.25
2022-09-28T01:13:34.368Z,99883.63
2022-09-28T01:16:10.776Z,99886.88
2022-09-28T01:18:48.666Z,99879.84
2022-09-28T01:21:20.048Z,99888.28
2022-09-28T01:24:14.981Z,99876.38
2022-09-28T01:26:50.282Z,99891.53
2022-09-28T01:29:23.206Z,99888.94
2022-09-28T01:31:57.685Z,99880.88
2022-09-28T01:34:32.167Z,99879.56
2022-09-28T01:37:04.274Z,99882.28
2022-09-28T01:39:36.183Z,99885.59
2022-09-28T01:42:13.009Z,99890.81
2022-09-28T01:44:46.356Z,99880.16
2022-09-28T01:47:18.834Z,99878.59
2022-09-28T01:49:50.774Z,99876.63
2022-09-28T01:52:24.122Z,99872.78
2022-09-28T01:54:58.137Z,99869.00
2022-09-28T01:57:33.555Z,99858.28
2022-09-28T02:00:06.104Z,99850.94
2022-09-28T02:02:39.656Z,99855.53
2022-09-28T02:05:12.946Z,99846.66
2022-09-28T02:07:45.797Z,99841.81
2022-09-28T02:10:17.785Z,99841.34
2022-09-28T02:12:52.379Z,99837.25
2022-09-28T02:15:24.255Z,99837.09
2022-09-28T02:17:52.539Z,99837.16
2022-09-28T02:20:22.767Z,99827.72
2022-09-28T02:22:52.810Z,99838.97
2022-09-28T02:25:29.418Z,99838.16
2022-09-28T02:28:01.959Z,99835.84
2022-09-28T02:30:31.569Z,99844.56
2022-09-28T02:33:06.362Z,99852.81
2022-09-28T02:35:35.339Z,99850.94
2022-09-28T02:38:03.282Z,99856.78
2022-09-28T02:40:33.388Z,99857.19
2022-09-28T02:43:11.352Z,99862.19
2022-09-28T02:45:50.712Z,99860.84
2022-09-28T02:48:43.696Z,99871.78
2022-09-28T02:51:21.956Z,99883.22
2022-09-28T02:54:22.571Z,99884.34
2022-09-28T02:57:11.392Z,99879.59
2022-09-28T02:59:50.827Z,99879.59
2022-09-28T03:02:29.301Z,99867.31
2022-09-28T03:05:07.748Z,99868.50
2022-09-28T03:07:38.571Z,99859.81
2022-09-28T03:10:14.889Z,99856.91
2022-09-28T03:12:45.594Z,99858.53
2022-09-28T03:15:22.029Z,99853.63
2022-09-28T03:17:50.626Z,99853.53
2022-09-28T03:20:19.458Z,99849.56
2022-09-28T03:23:05.958Z,99846.47
2022-09-28T03:25:35.489Z,99855.66
2022-09-28T03:28:03.280Z,99849.75
2022-09-28T03:30:32.390Z,99843.66
2022-09-28T03:33:02.420Z,99839.72
2022-09-28T03:35:30.169Z,99829.38
2022-09-28T03:37:58.194Z,99832.69
2022-09-28T03:40:27.134Z,99832.50
2022-09-28T03:42:55.075Z,99839.69
2022-09-28T03:45:22.821Z,99844.34
2022-09-28T03:47:51.918Z,99843.38
2022-09-28T03:50:19.650Z,99833.66
2022-09-28T03:52:47.337Z,99823.91
2022-09-28T03:55:15.329Z,99829.81
2022-09-28T03:57:43.025Z,99813.44
2022-09-28T04:00:11.848Z,99823.84
2022-09-28T04:02:39.994Z,99813.94
2022-09-28T04:05:09.944Z,99821.66
2022-09-28T04:07:37.678Z,99798.72
2022-09-28T04:10:05.870Z,99796.56
2022-09-28T04:12:33.576Z,99787.44
2022-09-28T04:15:01.284Z,99774.63
2022-09-28T04:17:29.041Z,99774.06
2022-09-28T04:19:57.736Z,99773.63
2022-09-28T04:22:26.868Z,99762.63
2022-09-28T04:24:55.008Z,99761.81
2022-09-28T04:27:40.010Z,99755.88
2022-09-28T04:30:08.972Z,99737.03
2022-09-28T04:32:36.719Z,99729.50
2022-09-28T04:35:04.753Z,99712.53
2022-09-28T04:37:33.838Z,99723.56
2022-09-28T04:40:01.890Z,99707.03
2022-09-28T04:42:29.683Z,99703.06
2022-09-28T04:44:58.792Z,99694.78
2022-09-28T04:47:26.506Z,99684.47
2022-09-28T04:49:54.601Z,99677.22
2022-09-28T04:52:22.392Z,99667.44
2022-09-28T04:54:51.503Z,99667.66
2022-09-28T04:57:19.392Z,99674.50
2022-09-28T04:59:47.084Z,99684.81
2022-09-28T05:02:15.167Z,99676.19
2022-09-28T05:04:43.069Z,99670.03
2022-09-28T05:07:10.869Z,99679.66
2022-09-28T05:09:38.774Z,99688.00
2022-09-28T05:12:09.521Z,99692.81
2022-09-28T05:14:37.212Z,99668.28
2022-09-28T05:17:05.407Z,99673.78
2022-09-28T05:19:34.886Z,99656.13
2022-09-28T05:22:04.703Z,99657.13
2022-09-28T05:24:32.474Z,99665.53
2022-09-28T05:27:00.229Z,99653.16
2022-09-28T05:29:32.155Z,99644.63
2022-09-28T05:32:01.589Z,99624.13
2022-09-28T05:34:29.522Z,99624.50
2022-09-28T05:36:57.237Z,99631.19
2022-09-28T05:39:25.038Z,99630.28
2022-09-28T05:41:52.755Z,99602.13
2022-09-28T05:44:20.439Z,99583.78
2022-09-28T05:46:49.524Z,99595.69
2022-09-28T05:49:17.269Z,99630.34
2022-09-28T05:51:45.050Z,99652.78
2022-09-28T05:54:12.806Z,99688.13
2022-09-28T05:56:40.568Z,99676.16
2022-09-28T05:59:08.268Z,99673.00
2022-09-28T06:01:36.045Z,99666.66
2022-09-28T06:04:05.125Z,99669.25
2022-09-28T06:06:32.832Z,99667.56
2022-09-28T06:09:00.604Z,99662.78
2022-09-28T06:11:28.314Z,99645.03
2022-09-28T06:13:56.379Z,99636.69
2022-09-28T06:16:24.194Z,99622.38
2022-09-28T06:18:52.094Z,99626.75
2022-09-28T06:21:21.302Z,99610.56
2022-09-28T06:23:51.213Z,99611.97
2022-09-28T06:26:18.963Z,99603.03
2022-09-28T06:28:46.689Z,99623.44
2022-09-28T06:31:14.725Z,99632.78
2022-09-28T06:33:42.707Z,99627.25
2022-09-28T06:36:10.811Z,99627.50
2022-09-28T06:38:39.882Z,99601.00
2022-09-28T06:41:07.655Z,99608.06
2022-09-28T06:43:36.731Z,99598.88
2022-09-28T06:46:04.557Z,99569.84
2022-09-28T06:48:33.501Z,99595.63
2022-09-28T06:51:01.765Z,99608.03
2022-09-28T06:53:30.391Z,99628.88
2022-09-28T06:56:00.571Z,99617.59
2022-09-28T06:58:28.283Z,99612.63
2022-09-28T07:00:59.535Z,99588.44
2022-09-28T07:03:27.585Z,99580.06
2022-09-28T07:05:56.598Z,99566.53
2022-09-28T07:08:26.251Z,99556.88
2022-09-28T07:10:56.262Z,99541.69
2022-09-28T07:13:50.273Z,99537.06
2022-09-28T07:16:15.824Z,99542.91
2022-09-28T07:18:43.597Z,99534.13
2022-09-28T07:21:24.151Z,99536.22
2022-09-28T07:23:56.300Z,99522.38
2022-09-28T07:26:24.859Z,99511.44
2022-09-28T07:28:54.260Z,99507.97
2022-09-28T07:31:22.263Z,99510.44
2022-09-28T07:33:51.613Z,99513.09
2022-09-28T07:36:20.884Z,99495.06
2022-09-28T07:38:48.927Z,99484.09
2022-09-28T07:41:21.615Z,99482.31
2022-09-28T07:43:50.124Z,99500.66
2022-09-28T07:46:20.645Z,99498.81
2022-09-28T07:48:49.566Z,99489.06
2022-09-28T07:51:19.765Z,99470.72
2022-09-28T07:53:48.039Z,99456.75
2022-09-28T07:56:17.425Z,99451.34
2022-09-28T07:58:45.146Z,99446.56
2022-09-28T08:01:14.916Z,99444.91
2022-09-28T08:03:47.869Z,99430.91
2022-09-28T08:06:18.016Z,99433.69
2022-09-28T08:08:46.117Z,99442.47
2022-09-28T08:11:14.538Z,99442.31
2022-09-28T08:13:42.622Z,99436.06
2022-09-28T08:16:11.845Z,99447.03
2022-09-28T08:18:39.674Z,99431.28
2022-09-28T08:21:25.988Z,99420.75
2022-09-28T08:23:54.023Z,99428.47
2022-09-28T08:26:21.796Z,99457.94
2022-09-28T08:28:50.105Z,99454.38
2022-09-28T08:31:17.890Z,99437.56
2022-09-28T08:33:45.735Z,99419.88
2022-09-28T08:36:14.914Z,99418.41
2022-09-28T08:38:43.530Z,99435.84
2022-09-28T08:41:20.095Z,99440.03
2022-09-28T08:44:04.841Z,99452.41
2022-09-28T08:46:38.488Z,99430.41
2022-09-28T08:49:26.394Z,99431.06
2022-09-28T08:52:01.648Z,99412.88
2022-09-28T08:54:39.734Z,99375.16
2022-09-28T08:57:12.455Z,99353.72
2022-09-28T08:59:52.311Z,99326.75
2022-09-28T09:02:25.479Z,99317.44
2022-09-28T09:04:53.954Z,99301.47
2022-09-28T09:07:46.528Z,99301.34
2022-09-28T09:10:30.837Z,99288.69
2022-09-28T09:13:12.543Z,99280.91
2022-09-28T09:15:51.536Z,99266.28
2022-09-28T09:18:27.765Z,99245.19
2022-09-28T09:20:58.527Z,99248.91
2022-09-28T09:23:37.525Z,99226.03
2022-09-28T09:26:16.558Z,99180.44
2022-09-28T09:28:57.352Z,99162.16
2022-09-28T09:31:40.673Z,99140.09
2022-09-28T09:34:33.518Z,99066.88
2022-09-28T09:37:12.390Z,99058.22
2022-09-28T09:39:52.342Z,99040.47
2022-09-28T09:42:37.257Z,98975.50
2022-09-28T09:45:29.050Z,98540.00
2022-09-28T09:48:03.265Z,99205.03
2022-09-28T09:50:36.401Z,99280.31
2022-09-28T09:53:11.104Z,99287.53
2022-09-28T09:55:44.915Z,99296.50
2022-09-28T09:58:18.106Z,99351.81
2022-09-28T10:00:49.067Z,99371.88
2022-09-28T10:03:23.234Z,99382.75
2022-09-28T10:05:57.665Z,99357.81
2022-09-28T10:08:28.146Z,99369.56
2022-09-28T10:11:07.646Z,99398.56
2022-09-28T10:13:35.491Z,99410.16
2022-09-28T10:16:04.024Z,99411.97
2022-09-28T10:18:31.705Z,99429.09
2022-09-28T10:20:59.415Z,99436.38
2022-09-28T10:23:30.460Z,99441.66
2022-09-28T10:26:04.950Z,99482.81
2022-09-28T10:28:36.871Z,99482.66
2022-09-28T10:31:35.420Z,99507.38
2022-09-28T10:34:04.493Z,99510.09
2022-09-28T10:36:38.320Z,99504.84
2022-09-28T10:39:06.638Z,99499.50
2022-09-28T10:41:49.579Z,99496.88
2022-09-28T10:44:19.545Z,99485.63
2022-09-28T10:46:57.764Z,99469.47
2022-09-28T10:49:27.116Z,99465.03
2022-09-28T10:51:56.287Z,99499.31
2022-09-28T10:54:26.222Z,99478.09
2022-09-28T10:56:57.118Z,99475.22
2022-09-28T10:59:40.787Z,99478.88
2022-09-28T11:02:22.076Z,99500.38
2022-09-28T11:04:55.300Z,99488.47
2022-09-28T11:07:25.810Z,99469.97
2022-09-28T11:09:56.166Z,99447.16
2022-09-28T11:12:27.999Z,99459.25
2022-09-28T11:15:01.974Z,99450.25
2022-09-28T11:17:32.595Z,99454.59
2022-09-28T11:20:02.753Z,99427.38
2022-09-28T11:22:41.780Z,99434.56
2022-09-28T11:25:22.320Z,99417.56
2022-09-28T11:28:04.917Z,99386.31
2022-09-28T11:30:35.839Z,99420.59
2022-09-28T11:33:06.248Z,99408.09
2022-09-28T11:35:46.938Z,99414.97
2022-09-28T11:38:34.038Z,99395.34
2022-09-28T11:41:17.118Z,99391.19
2022-09-28T11:44:17.257Z,99404.50
2022-09-28T11:46:53.449Z,99411.81
2022-09-28T11:49:31.756Z,99422.28
2022-09-28T11:52:04.309Z,99408.28
2022-09-28T11:54:41.395Z,99422.88
2022-09-28T11:57:15.730Z,99415.91
2022-09-28T11:59:55.401Z,99415.31
2022-09-28T12:02:27.481Z,99418.38
2022-09-28T12:04:59.292Z,99422.88
2022-09-28T12:07:32.073Z,99432.75
2022-09-28T12:10:04.526Z,99400.16
2022-09-28T12:12:36.785Z,99395.22
2022-09-28T12:15:16.247Z,99385.91
2022-09-28T12:17:48.229Z,99311.66
2022-09-28T12:20:23.712Z,99246.06
2022-09-28T12:23:02.373Z,99107.06
2022-09-28T12:25:38.713Z,99023.53
2022-09-28T12:28:09.541Z,98954.03
2022-09-28T12:30:42.502Z,98960.72
2022-09-28T12:33:13.838Z,99010.53
2022-09-28T12:35:54.721Z,99066.34
2022-09-28T12:38:38.421Z,99188.31
2022-09-28T12:41:20.998Z,99347.13
2022-09-28T12:44:01.784Z,99471.25
2022-09-28T12:46:40.111Z,99598.22
2022-09-28T12:52:29.854Z,99761.06
2022-09-28T12:55:20.079Z,99793.28
2022-09-28T12:57:58.266Z,99822.28
2022-09-28T13:00:32.192Z,99839.16
2022-09-28T13:03:22.546Z,99859.28
2022-09-28T13:06:16.424Z,99885.53
2022-09-28T13:08:57.628Z,99901.09
2022-09-28T13:11:34.097Z,99914.47
2022-09-28T13:14:22.726Z,99906.41
2022-09-28T13:17:01.409Z,99912.19
2022-09-28T13:19:42.209Z,99906.13
2022-09-28T13:22:23.915Z,99909.16
2022-09-28T13:24:56.188Z,99910.25
2022-09-28T13:27:32.951Z,99908.94
2022-09-28T13:30:03.821Z,99899.22
2022-09-28T13:32:33.562Z,99892.56
2022-09-28T13:35:03.338Z,99886.88
2022-09-28T13:37:31.128Z,99890.75
2022-09-28T13:39:59.830Z,99887.88
2022-09-28T13:42:52.974Z,99897.34
2022-09-28T13:45:56.613Z,99894.66
2022-09-28T13:48:35.692Z,99894.66
2022-09-28T13:51:30.496Z,99888.25
2022-09-28T13:54:17.274Z,99933.22
2022-09-28T13:56:54.949Z,99925.31
2022-09-28T13:59:27.010Z,99905.47
2022-09-28T14:02:06.560Z,99888.75
2022-09-28T14:04:54.951Z,99872.41
2022-09-28T14:10:18.694Z,99873.31
2022-09-28T14:12:49.599Z,99874.94
2022-09-28T14:15:40.249Z,99875.94
2022-09-28T14:18:19.139Z,99880.84
2022-09-28T14:20:58.736Z,99870.03
2022-09-28T14:23:58.926Z,99840.41
2022-09-28T14:26:56.612Z,99841.22
2022-09-28T14:29:31.398Z,99857.31
2022-09-28T14:32:04.657Z,99861.91
2022-09-28T14:34:36.710Z,99861.38
2022-09-28T14:37:34.686Z,99861.13
2022-09-28T14:40:34.443Z,99863.47
2022-09-28T14:43:28.574Z,99867.97
2022-09-28T14:46:28.446Z,99865.06
2022-09-28T14:48:57.265Z,99865.69
2022-09-28T14:52:02.571Z,99869.56
2022-09-28T14:54:40.923Z,99878.34
2022-09-28T14:57:19.213Z,99873.28
2022-09-28T14:59:47.752Z,99881.72
2022-09-28T15:02:21.644Z,99879.38
2022-09-28T15:04:53.332Z,99873.66
2022-09-28T15:07:23.800Z,99872.31
2022-09-28T15:09:53.581Z,99858.97
2022-09-28T15:12:26.966Z,99847.25
2022-09-28T15:14:58.316Z,99854.69
2022-09-28T15:17:29.426Z,99862.06
2022-09-28T15:20:24.360Z,99856.47
2022-09-28T15:22:57.054Z,99854.59
2022-09-28T15:25:26.880Z,99839.19
2022-09-28T15:27:57.629Z,99825.88
2022-09-28T15:30:28.859Z,99840.41
2022-09-28T15:33:18.223Z,99829.84
2022-09-28T15:35:49.772Z,99840.31
2022-09-28T15:38:18.736Z,99832.31
2022-09-28T15:40:47.731Z,99841.03
2022-09-28T15:43:27.139Z,99837.97
2022-09-28T15:46:07.192Z,99837.72
2022-09-28T15:48:40.958Z,99831.81
2022-09-28T15:51:11.842Z,99771.44
2022-09-28T15:53:48.262Z,99737.25
2022-09-28T15:56:16.153Z,99645.16
2022-09-28T15:58:47.006Z,99600.66
2022-09-28T16:01:36.078Z,99607.16
2022-09-28T16:04:39.171Z,99590.88
2022-09-28T16:07:20.322Z,99576.00
2022-09-28T16:10:02.910Z,99546.16
2022-09-28T16:12:43.288Z,99455.84
2022-09-28T16:15:20.325Z,99338.94
2022-09-28T16:17:53.469Z,99287.53
2022-09-28T16:20:29.400Z,99242.72
2022-09-28T16:22:59.586Z,99196.22
2022-09-28T16:25:28.331Z,99217.44
2022-09-28T16:27:56.829Z,99244.59
2022-09-28T16:30:28.814Z,99275.25
2022-09-28T16:32:58.057Z,99286.97
2022-09-28T16:35:28.386Z,99295.56
2022-09-28T16:38:02.389Z,99320.00
2022-09-28T16:40:31.740Z,99359.19
2022-09-28T16:43:02.903Z,99359.31
2022-09-28T16:45:32.955Z,99374.25
2022-09-28T16:48:01.662Z,99355.34
2022-09-28T16:50:29.694Z,99357.53
2022-09-28T16:53:19.201Z,99364.25
2022-09-28T16:55:48.929Z,99372.88
2022-09-28T16:58:16.676Z,99375.41
2022-09-28T17:00:45.782Z,99376.44
2022-09-28T17:03:19.316Z,99391.47
2022-09-28T17:05:49.070Z,99404.03
2022-09-28T17:08:19.600Z,99390.69
2022-09-28T17:11:14.038Z,99395.53
2022-09-28T17:13:41.475Z,99411.31
2022-09-28T17:16:15.077Z,99406.28
2022-09-28T17:18:43.027Z,99406.59
2022-09-28T17:21:15.854Z,99411.28
2022-09-28T17:23:44.008Z,99420.44
2022-09-28T17:26:19.399Z,99457.88
2022-09-28T17:28:47.444Z,99452.34
2022-09-28T17:31:17.556Z,99457.94
2022-09-28T17:33:45.357Z,99441.63
2022-09-28T17:36:16.038Z,99421.06
2022-09-28T17:38:44.464Z,99425.97
2022-09-28T17:41:16.793Z,99413.38
2022-09-28T17:43:47.400Z,99417.88
2022-09-28T17:46:27.160Z,99407.97
2022-09-28T17:48:57.679Z,99419.59
2022-09-28T17:51:25.362Z,99391.22
2022-09-28T17:53:53.306Z,99418.59
2022-09-28T17:56:21.303Z,99465.66
2022-09-28T17:58:49.149Z,99495.56
2022-09-28T18:01:17.036Z,99541.03
2022-09-28T18:03:46.134Z,99391.78
2022-09-28T18:06:15.677Z,99329.25
2022-09-28T18:08:44.408Z,99258.09
2022-09-28T18:11:12.543Z,99191.97
2022-09-28T18:13:40.630Z,99147.59
2022-09-28T18:16:09.419Z,99131.25
2022-09-28T18:18:39.745Z,99156.28
2022-09-28T18:21:09.083Z,99156.66
2022-09-28T18:23:37.308Z,99143.19
2022-09-28T18:26:05.549Z,99130.59
2022-09-28T18:28:33.233Z,99125.97
2022-09-28T18:31:00.974Z,99145.63
2022-09-28T18:33:28.694Z,99130.50
2022-09-28T18:35:56.466Z,99125.81
2022-09-28T18:38:25.568Z,99114.25
2022-09-28T18:40:54.522Z,99118.81
2022-09-28T18:43:22.278Z,99143.63
2022-09-28T18:45:50.006Z,99159.78
2022-09-28T18:48:17.812Z,99179.03
2022-09-28T18:50:45.553Z,99191.91
2022-09-28T18:53:13.309Z,99186.00
2022-09-28T18:55:44.690Z,99191.16
2022-09-28T18:58:12.986Z,99182.59
2022-09-28T19:00:42.402Z,99163.13
2022-09-28T19:03:14.372Z,99161.84
2022-09-28T19:05:43.121Z,99147.84
2022-09-28T19:08:11.008Z,99160.16
2022-09-28T19:10:38.710Z,99161.91
2022-09-28T19:13:07.811Z,99161.16
2022-09-28T19:15:35.657Z,99161.97
2022-09-28T19:18:03.926Z,99165.03
2022-09-28T19:20:33.743Z,99165.78
2022-09-28T19:23:02.050Z,99174.13
2022-09-28T19:25:29.914Z,99192.03
2022-09-28T19:27:57.697Z,99197.75
2022-09-28T19:30:26.760Z,99209.19
2022-09-28T19:32:54.464Z,99219.09
2022-09-28T19:35:22.180Z,99222.03
2022-09-28T19:37:51.397Z,99199.94
2022-09-28T19:40:19.194Z,99205.09
2022-09-28T19:42:46.998Z,99206.50
2022-09-28T19:45:14.713Z,99203.53
2022-09-28T19:47:44.005Z,99209.28
2022-09-28T19:50:11.713Z,99211.00
2022-09-28T19:52:39.396Z,99238.66
2022-09-28T19:55:08.208Z,99295.34
2022-09-28T19:57:36.001Z,99365.31
2022-09-28T20:00:04.183Z,99394.66
2022-09-28T20:02:32.115Z,99360.78
2022-09-28T20:05:01.390Z,99318.00
2022-09-28T20:07:33.071Z,99299.00
2022-09-28T20:10:00.921Z,99292.53
2022-09-28T20:12:28.717Z,99287.50
2022-09-28T20:14:56.431Z,99301.75
2022-09-28T20:17:24.213Z,99315.06
2022-09-28T20:19:52.247Z,99319.34
2022-09-28T20:22:21.410Z,99320.09
2022-09-28T20:24:49.103Z,99299.44
2022-09-28T20:27:16.840Z,99305.50
2022-09-28T20:29:44.510Z,99311.97
2022-09-28T20:32:12.563Z,99314.06
2022-09-28T20:34:40.264Z,99306.38
2022-09-28T20:37:07.970Z,99300.56
2022-09-28T20:39:40.347Z,99289.50
2022-09-28T20:42:10.549Z,99288.75
2022-09-28T20:44:38.282Z,99304.44
2022-09-28T20:47:06.109Z,99316.69
2022-09-28T20:49:33.793Z,99313.59
2022-09-28T20:52:01.688Z,99292.75
2022-09-28T20:54:29.390Z,99279.88
2022-09-28T20:56:58.475Z,99271.75
2022-09-28T20:59:27.685Z,99255.09
2022-09-28T21:01:55.419Z,99256.06
2022-09-28T21:04:23.168Z,99242.34
2022-09-28T21:06:50.893Z,99249.94
2022-09-28T21:09:18.591Z,99255.22
2022-09-28T21:11:46.764Z,99255.97
2022-09-28T21:14:15.878Z,99268.94
2022-09-28T21:16:43.617Z,99271.13
2022-09-28T21:19:11.397Z,99269.63
2022-09-28T21:21:39.476Z,99265.03
2022-09-28T21:24:07.809Z,99263.25
2022-09-28T21:26:35.575Z,99252.69
2022-09-28T21:29:04.787Z,99241.81
2022-09-28T21:31:39.106Z,99240.25
2022-09-28T21:34:07.169Z,99245.38
2022-09-28T21:36:34.938Z,99232.47
2022-09-28T21:39:05.017Z,99241.22
2022-09-28T21:41:36.036Z,99267.03
2022-09-28T21:44:03.901Z,99277.22
2022-09-28T21:46:34.720Z,99273.22
2022-09-28T21:49:02.975Z,99279.03
2022-09-28T21:51:31.385Z,99295.28
2022-09-28T21:53:59.259Z,99315.22
2022-09-28T21:56:27.747Z,99337.41
2022-09-28T21:58:55.474Z,99333.28
2022-09-28T22:01:25.538Z,99348.03
2022-09-28T22:03:57.249Z,99382.28
2022-09-28T22:06:28.187Z,99380.22
2022-09-28T22:08:56.479Z,99366.31
2022-09-28T22:11:26.093Z,99358.19
2022-09-28T22:13:56.418Z,99333.31
2022-09-28T22:16:26.279Z,99344.91
2022-09-28T22:18:58.601Z,99322.41
2022-09-28T22:21:28.281Z,99332.75
2022-09-28T22:24:00.838Z,99338.31
2022-09-28T22:26:29.400Z,99326.63
2022-09-28T22:28:58.729Z,99345.44
2022-09-28T22:31:29.557Z,99338.59
2022-09-28T22:33:59.106Z,99356.88
2022-09-28T22:36:27.152Z,99347.84
2022-09-28T22:38:56.051Z,99350.47
2022-09-28T22:41:24.927Z,99361.88
2022-09-28T22:43:54.569Z,99377.22
2022-09-28T22:46:23.977Z,99383.00
2022-09-28T22:48:53.246Z,99377.69
2022-09-28T22:51:23.402Z,99374.53
2022-09-28T22:53:51.197Z,99378.03
2022-09-28T22:56:19.421Z,99393.00
2022-09-28T22:58:47.876Z,99426.34
2022-09-28T23:01:18.530Z,99481.53
2022-09-28T23:03:46.680Z,99514.53
2022-09-28T23:06:16.570Z,99550.19
2022-09-28T23:08:47.293Z,99563.91
2022-09-28T23:11:15.769Z,99559.88
2022-09-28T23:13:43.513Z,99560.31
2022-09-28T23:16:14.831Z,99540.00
2022-09-28T23:18:42.898Z,99550.00
2022-09-28T23:21:15.205Z,99569.78
2022-09-28T23:23:43.327Z,99572.69
2022-09-28T23:26:15.957Z,99538.91
2022-09-28T23:28:43.884Z,99516.66
2022-09-28T23:31:13.730Z,99540.69
2022-09-28T23:33:41.818Z,99550.19
2022-09-28T23:36:10.460Z,99539.88
2022-09-28T23:38:38.479Z,99554.31
2022-09-28T23:41:06.299Z,99553.91
2022-09-28T23:43:36.152Z,99556.47
2022-09-28T23:46:04.352Z,99558.31
2022-09-28T23:48:32.484Z,99598.13
2022-09-28T23:51:00.612Z,99595.09
2022-09-28T23:53:29.258Z,99584.59
2022-09-28T23:55:56.973Z,99569.09
2022-09-28T23:58:25.724Z,99563.78
